sensor_id;sensor_type;location;lat;lon;timestamp;temperature;humidity
7455;HTU21D;3769;51.208;4.454;2023-04-24T00:04:00;10.1;97.8
7455;HTU21D;3769;51.208;4.454;2023-04-24T00:09:00;10.2;97.8
7455;HTU21D;3769;51.208;4.454;2023-04-24T00:14:00;10.1;97.8
7455;HTU21D;3769;51.208;4.454;2023-04-24T00:19:00;10;97.8
7455;HTU21D;3769;51.208;4.454;2023-04-24T00:24:00;10.1;97.8
7455;HTU21D;3769;51.208;4.454;2023-04-24T00:29:00;10;97.8
7455;HTU21D;3769;51.208;4.454;2023-04-24T00:34:01;10;97.7
7455;HTU21D;3769;51.208;4.454;2023-04-24T00:39:00;10;97.7
7455;HTU21D;3769;51.208;4.454;2023-04-24T00:44:00;9.9;97.7
7455;HTU21D;3769;51.208;4.454;2023-04-24T00:49:00;10.1;97.8
7455;HTU21D;3769;51.208;4.454;2023-04-24T00:54:00;9.9;97.7
7455;HTU21D;3769;51.208;4.454;2023-04-24T00:59:00;9.8;97.7
7455;HTU21D;3769;51.208;4.454;2023-04-24T01:04:01;10.1;97.8
7455;HTU21D;3769;51.208;4.454;2023-04-24T01:09:00;10;97.7
7455;HTU21D;3769;51.208;4.454;2023-04-24T01:14:00;9.9;97.7
7455;HTU21D;3769;51.208;4.454;2023-04-24T01:19:00;10;97.8
7455;HTU21D;3769;51.208;4.454;2023-04-24T01:24:00;9.9;97.7
7455;HTU21D;3769;51.208;4.454;2023-04-24T01:29:00;10;97.7
7455;HTU21D;3769;51.208;4.454;2023-04-24T01:34:00;9.9;97.7
7455;HTU21D;3769;51.208;4.454;2023-04-24T01:39:00;10;97.7
7455;HTU21D;3769;51.208;4.454;2023-04-24T01:44:00;9.9;97.7
7455;HTU21D;3769;51.208;4.454;2023-04-24T01:49:01;10;97.8
7455;HTU21D;3769;51.208;4.454;2023-04-24T01:54:00;10.1;97.8
7455;HTU21D;3769;51.208;4.454;2023-04-24T01:59:00;9.9;97.7
7455;HTU21D;3769;51.208;4.454;2023-04-24T02:04:00;9.9;97.7
7455;HTU21D;3769;51.208;4.454;2023-04-24T02:09:00;9.9;97.7
7455;HTU21D;3769;51.208;4.454;2023-04-24T02:14:00;10;97.8
7455;HTU21D;3769;51.208;4.454;2023-04-24T02:19:00;10;97.8
7455;HTU21D;3769;51.208;4.454;2023-04-24T02:24:00;9.9;97.7
7455;HTU21D;3769;51.208;4.454;2023-04-24T02:29:00;9.8;97.7
7455;HTU21D;3769;51.208;4.454;2023-04-24T02:34:00;9.8;97.7
7455;HTU21D;3769;51.208;4.454;2023-04-24T02:39:00;9.7;97.7
7455;HTU21D;3769;51.208;4.454;2023-04-24T02:44:00;9.7;97.7
7455;HTU21D;3769;51.208;4.454;2023-04-24T02:49:00;9.6;97.7
7455;HTU21D;3769;51.208;4.454;2023-04-24T02:54:00;9.5;97.7
7455;HTU21D;3769;51.208;4.454;2023-04-24T02:59:00;9.2;97.6
7455;HTU21D;3769;51.208;4.454;2023-04-24T03:04:00;9.2;97.6
7455;HTU21D;3769;51.208;4.454;2023-04-24T03:09:00;9.1;97.6
7455;HTU21D;3769;51.208;4.454;2023-04-24T03:14:00;9;97.6
7455;HTU21D;3769;51.208;4.454;2023-04-24T03:19:00;9;97.6
7455;HTU21D;3769;51.208;4.454;2023-04-24T03:24:00;8.9;97.6
7455;HTU21D;3769;51.208;4.454;2023-04-24T03:29:00;8.9;97.6
7455;HTU21D;3769;51.208;4.454;2023-04-24T03:34:00;8.8;97.6
7455;HTU21D;3769;51.208;4.454;2023-04-24T03:39:00;8.8;97.6
7455;HTU21D;3769;51.208;4.454;2023-04-24T03:44:00;8.8;97.6
7455;HTU21D;3769;51.208;4.454;2023-04-24T03:49:00;8.8;97.6
7455;HTU21D;3769;51.208;4.454;2023-04-24T03:54:00;8.6;97.5
7455;HTU21D;3769;51.208;4.454;2023-04-24T03:59:00;8.5;97.5
7455;HTU21D;3769;51.208;4.454;2023-04-24T04:04:00;8.5;97.5
7455;HTU21D;3769;51.208;4.454;2023-04-24T04:09:00;8.4;97.5
7455;HTU21D;3769;51.208;4.454;2023-04-24T04:14:02;8.4;97.5
7455;HTU21D;3769;51.208;4.454;2023-04-24T04:19:00;8.4;97.5
7455;HTU21D;3769;51.208;4.454;2023-04-24T04:24:00;8.4;97.5
7455;HTU21D;3769;51.208;4.454;2023-04-24T04:29:00;8.4;97.5
7455;HTU21D;3769;51.208;4.454;2023-04-24T04:34:00;8.2;97.5
7455;HTU21D;3769;51.208;4.454;2023-04-24T04:39:00;8.2;97.5
7455;HTU21D;3769;51.208;4.454;2023-04-24T04:44:01;8.2;97.5
7455;HTU21D;3769;51.208;4.454;2023-04-24T04:49:00;8.2;97.5
7455;HTU21D;3769;51.208;4.454;2023-04-24T04:54:00;8.1;97.5
7455;HTU21D;3769;51.208;4.454;2023-04-24T04:59:00;8;97.4
7455;HTU21D;3769;51.208;4.454;2023-04-24T05:04:00;7.9;97.4
7455;HTU21D;3769;51.208;4.454;2023-04-24T05:09:00;8;97.5
7455;HTU21D;3769;51.208;4.454;2023-04-24T05:14:00;8;97.4
7455;HTU21D;3769;51.208;4.454;2023-04-24T05:19:00;7.9;97.4
7455;HTU21D;3769;51.208;4.454;2023-04-24T05:24:00;8;97.4
7455;HTU21D;3769;51.208;4.454;2023-04-24T05:29:00;7.9;97.4
7455;HTU21D;3769;51.208;4.454;2023-04-24T05:34:00;7.8;97.4
7455;HTU21D;3769;51.208;4.454;2023-04-24T05:39:00;7.8;97.4
7455;HTU21D;3769;51.208;4.454;2023-04-24T05:44:00;7.7;97.4
7455;HTU21D;3769;51.208;4.454;2023-04-24T05:49:00;7.7;97.4
7455;HTU21D;3769;51.208;4.454;2023-04-24T05:54:00;7.8;97.4
7455;HTU21D;3769;51.208;4.454;2023-04-24T05:59:00;7.8;97.4
7455;HTU21D;3769;51.208;4.454;2023-04-24T06:04:00;7.9;97.4
7455;HTU21D;3769;51.208;4.454;2023-04-24T06:09:00;7.8;97.4
7455;HTU21D;3769;51.208;4.454;2023-04-24T06:14:00;7.8;97.4
7455;HTU21D;3769;51.208;4.454;2023-04-24T06:19:00;8;97.4
7455;HTU21D;3769;51.208;4.454;2023-04-24T06:24:00;8;97.5
7455;HTU21D;3769;51.208;4.454;2023-04-24T06:29:00;8.1;97.5
7455;HTU21D;3769;51.208;4.454;2023-04-24T06:34:00;8.1;97.5
7455;HTU21D;3769;51.208;4.454;2023-04-24T06:39:01;8.2;97.5
7455;HTU21D;3769;51.208;4.454;2023-04-24T06:44:00;8.1;97.5
7455;HTU21D;3769;51.208;4.454;2023-04-24T06:49:00;8.2;97.5
7455;HTU21D;3769;51.208;4.454;2023-04-24T06:54:00;8.2;97.5
7455;HTU21D;3769;51.208;4.454;2023-04-24T06:59:00;8.2;97.5
7455;HTU21D;3769;51.208;4.454;2023-04-24T07:04:00;8.2;97.5
7455;HTU21D;3769;51.208;4.454;2023-04-24T07:09:00;8.2;97.5
7455;HTU21D;3769;51.208;4.454;2023-04-24T07:14:00;8.1;97.5
7455;HTU21D;3769;51.208;4.454;2023-04-24T07:19:00;8.2;97.5
7455;HTU21D;3769;51.208;4.454;2023-04-24T07:24:00;8.2;97.5
7455;HTU21D;3769;51.208;4.454;2023-04-24T07:29:00;8.2;97.5
7455;HTU21D;3769;51.208;4.454;2023-04-24T07:34:00;8.3;97.5
7455;HTU21D;3769;51.208;4.454;2023-04-24T07:39:00;8.4;97.5
7455;HTU21D;3769;51.208;4.454;2023-04-24T07:44:00;8.4;97.5
7455;HTU21D;3769;51.208;4.454;2023-04-24T07:49:00;8.4;97.5
7455;HTU21D;3769;51.208;4.454;2023-04-24T07:54:00;8.4;97.5
7455;HTU21D;3769;51.208;4.454;2023-04-24T07:59:00;8.6;97.5
7455;HTU21D;3769;51.208;4.454;2023-04-24T08:04:01;8.8;97.6
7455;HTU21D;3769;51.208;4.454;2023-04-24T08:09:00;8.9;97.6
7455;HTU21D;3769;51.208;4.454;2023-04-24T08:14:00;8.9;97.6
7455;HTU21D;3769;51.208;4.454;2023-04-24T08:19:00;8.8;97.6
7455;HTU21D;3769;51.208;4.454;2023-04-24T08:24:00;8.8;97.6
7455;HTU21D;3769;51.208;4.454;2023-04-24T08:29:00;8.9;97.6
7455;HTU21D;3769;51.208;4.454;2023-04-24T08:34:00;9;97.6
7455;HTU21D;3769;51.208;4.454;2023-04-24T08:39:00;9;97.6
7455;HTU21D;3769;51.208;4.454;2023-04-24T08:44:01;8.8;97.6
7455;HTU21D;3769;51.208;4.454;2023-04-24T08:49:00;8.7;97.6
7455;HTU21D;3769;51.208;4.454;2023-04-24T08:54:00;8.9;97.6
7455;HTU21D;3769;51.208;4.454;2023-04-24T08:59:00;9;97.6
7455;HTU21D;3769;51.208;4.454;2023-04-24T09:04:02;9.1;97.6
7455;HTU21D;3769;51.208;4.454;2023-04-24T09:09:01;9.2;97.6
7455;HTU21D;3769;51.208;4.454;2023-04-24T09:14:01;9.2;97.6
7455;HTU21D;3769;51.208;4.454;2023-04-24T09:19:00;9.3;97.6
7455;HTU21D;3769;51.208;4.454;2023-04-24T09:24:01;9.3;97.6
7455;HTU21D;3769;51.208;4.454;2023-04-24T09:29:00;9.1;97.6
7455;HTU21D;3769;51.208;4.454;2023-04-24T09:34:01;9;97.6
7455;HTU21D;3769;51.208;4.454;2023-04-24T09:39:01;9;97.6
7455;HTU21D;3769;51.208;4.454;2023-04-24T09:44:10;9.1;97.6
7455;HTU21D;3769;51.208;4.454;2023-04-24T09:49:08;9.5;97.7
7455;HTU21D;3769;51.208;4.454;2023-04-24T09:54:00;9.5;97.7
7455;HTU21D;3769;51.208;4.454;2023-04-24T09:59:04;9.5;97.7
7455;HTU21D;3769;51.208;4.454;2023-04-24T10:04:00;9.8;97.7
7455;HTU21D;3769;51.208;4.454;2023-04-24T10:09:00;9.9;97.7
7455;HTU21D;3769;51.208;4.454;2023-04-24T10:14:00;9.9;97.7
7455;HTU21D;3769;51.208;4.454;2023-04-24T10:19:00;9.7;97.7
7455;HTU21D;3769;51.208;4.454;2023-04-24T10:24:00;9.7;97.7
7455;HTU21D;3769;51.208;4.454;2023-04-24T10:29:00;9.6;97.7
7455;HTU21D;3769;51.208;4.454;2023-04-24T10:34:00;9.6;97.7
7455;HTU21D;3769;51.208;4.454;2023-04-24T10:39:02;9.4;97.7
7455;HTU21D;3769;51.208;4.454;2023-04-24T10:44:05;9.7;97.7
7455;HTU21D;3769;51.208;4.454;2023-04-24T10:49:03;9.9;97.7
7455;HTU21D;3769;51.208;4.454;2023-04-24T10:54:00;9.9;97.7
7455;HTU21D;3769;51.208;4.454;2023-04-24T10:59:00;9.9;97.7
7455;HTU21D;3769;51.208;4.454;2023-04-24T11:04:01;10.3;97.8
7455;HTU21D;3769;51.208;4.454;2023-04-24T11:09:04;10.3;97.8
7455;HTU21D;3769;51.208;4.454;2023-04-24T11:14:01;10.4;95
7455;HTU21D;3769;51.208;4.454;2023-04-24T11:19:02;10.4;83
7455;HTU21D;3769;51.208;4.454;2023-04-24T11:24:21;10.3;84.9
7455;HTU21D;3769;51.208;4.454;2023-04-24T11:29:07;10.1;85.1
7455;HTU21D;3769;51.208;4.454;2023-04-24T11:34:16;10.3;89.6
7455;HTU21D;3769;51.208;4.454;2023-04-24T11:39:00;10.4;92.2
7455;HTU21D;3769;51.208;4.454;2023-04-24T11:44:00;10.2;95.8
7455;HTU21D;3769;51.208;4.454;2023-04-24T11:49:00;10.1;97.8
7455;HTU21D;3769;51.208;4.454;2023-04-24T11:54:00;10.2;97.8
7455;HTU21D;3769;51.208;4.454;2023-04-24T11:59:00;10.4;97.8
7455;HTU21D;3769;51.208;4.454;2023-04-24T12:04:00;10.5;97.8
7455;HTU21D;3769;51.208;4.454;2023-04-24T12:09:00;10.6;97.8
7455;HTU21D;3769;51.208;4.454;2023-04-24T12:14:16;10.5;97.8
7455;HTU21D;3769;51.208;4.454;2023-04-24T12:19:01;10.3;97.8
7455;HTU21D;3769;51.208;4.454;2023-04-24T12:24:00;10.5;97.8
7455;HTU21D;3769;51.208;4.454;2023-04-24T12:29:01;10.6;97.8
7455;HTU21D;3769;51.208;4.454;2023-04-24T12:34:00;10.9;93
7455;HTU21D;3769;51.208;4.454;2023-04-24T12:39:00;11.1;93.8
7455;HTU21D;3769;51.208;4.454;2023-04-24T12:44:00;10.9;95.2
7455;HTU21D;3769;51.208;4.454;2023-04-24T12:49:00;10.8;93.5
7455;HTU21D;3769;51.208;4.454;2023-04-24T12:54:00;10.7;86.9
7455;HTU21D;3769;51.208;4.454;2023-04-24T12:59:00;11.6;76.9
7455;HTU21D;3769;51.208;4.454;2023-04-24T13:04:00;13.3;72.2
7455;HTU21D;3769;51.208;4.454;2023-04-24T13:09:00;17.1;56.5
7455;HTU21D;3769;51.208;4.454;2023-04-24T13:14:00;18;52.4
7455;HTU21D;3769;51.208;4.454;2023-04-24T13:19:00;18.9;51.2
7455;HTU21D;3769;51.208;4.454;2023-04-24T13:24:00;15.3;59.5
7455;HTU21D;3769;51.208;4.454;2023-04-24T13:29:00;13.5;64.8
7455;HTU21D;3769;51.208;4.454;2023-04-24T13:34:01;14.3;63.2
7455;HTU21D;3769;51.208;4.454;2023-04-24T13:39:01;13.6;64.3
7455;HTU21D;3769;51.208;4.454;2023-04-24T13:44:00;13;73.7
7455;HTU21D;3769;51.208;4.454;2023-04-24T13:49:01;13;72.2
7455;HTU21D;3769;51.208;4.454;2023-04-24T13:54:00;13.4;69.8
7455;HTU21D;3769;51.208;4.454;2023-04-24T13:59:00;16.2;60.7
7455;HTU21D;3769;51.208;4.454;2023-04-24T14:04:00;15.3;63.7
7455;HTU21D;3769;51.208;4.454;2023-04-24T14:09:00;14.8;62.6
7455;HTU21D;3769;51.208;4.454;2023-04-24T14:14:00;14.8;63.6
7455;HTU21D;3769;51.208;4.454;2023-04-24T14:19:00;15.2;62.2
7455;HTU21D;3769;51.208;4.454;2023-04-24T14:24:00;15.5;60.5
7455;HTU21D;3769;51.208;4.454;2023-04-24T14:29:00;15.7;59.8
7455;HTU21D;3769;51.208;4.454;2023-04-24T14:34:00;15.6;60.7
7455;HTU21D;3769;51.208;4.454;2023-04-24T14:39:01;14.5;60
7455;HTU21D;3769;51.208;4.454;2023-04-24T14:44:01;13.3;67.4
7455;HTU21D;3769;51.208;4.454;2023-04-24T14:49:00;12.6;71.8
7455;HTU21D;3769;51.208;4.454;2023-04-24T14:54:01;12.7;69.9
7455;HTU21D;3769;51.208;4.454;2023-04-24T14:59:01;12.5;73.1
7455;HTU21D;3769;51.208;4.454;2023-04-24T15:04:00;12.2;71.8
7455;HTU21D;3769;51.208;4.454;2023-04-24T15:09:00;12.1;69.4
7455;HTU21D;3769;51.208;4.454;2023-04-24T15:14:00;11.8;70.9
7455;HTU21D;3769;51.208;4.454;2023-04-24T15:19:00;11.7;71
7455;HTU21D;3769;51.208;4.454;2023-04-24T15:24:00;11.8;72.2
7455;HTU21D;3769;51.208;4.454;2023-04-24T15:29:01;11.8;69.4
7455;HTU21D;3769;51.208;4.454;2023-04-24T15:34:00;11.7;75.3
7455;HTU21D;3769;51.208;4.454;2023-04-24T15:39:01;11.9;81.9
7455;HTU21D;3769;51.208;4.454;2023-04-24T15:44:00;11.7;87.9
7455;HTU21D;3769;51.208;4.454;2023-04-24T15:49:00;11.6;91.3
7455;HTU21D;3769;51.208;4.454;2023-04-24T15:54:00;11.6;91.5
7455;HTU21D;3769;51.208;4.454;2023-04-24T15:59:00;11.6;86.3
7455;HTU21D;3769;51.208;4.454;2023-04-24T16:04:00;11.4;88.6
7455;HTU21D;3769;51.208;4.454;2023-04-24T16:09:00;11;97.2
7455;HTU21D;3769;51.208;4.454;2023-04-24T16:14:01;10.8;97.9
7455;HTU21D;3769;51.208;4.454;2023-04-24T16:19:00;10.7;97.9
7455;HTU21D;3769;51.208;4.454;2023-04-24T16:24:00;10.7;97.9
7455;HTU21D;3769;51.208;4.454;2023-04-24T16:29:00;10.6;97.8
7455;HTU21D;3769;51.208;4.454;2023-04-24T16:34:00;10.6;97.8
7455;HTU21D;3769;51.208;4.454;2023-04-24T16:39:01;10.5;86.3
7455;HTU21D;3769;51.208;4.454;2023-04-24T16:44:00;10.7;85.7
7455;HTU21D;3769;51.208;4.454;2023-04-24T16:49:01;10.8;84.4
7455;HTU21D;3769;51.208;4.454;2023-04-24T16:54:00;10.8;82.9
7455;HTU21D;3769;51.208;4.454;2023-04-24T16:59:00;10.5;87.3
7455;HTU21D;3769;51.208;4.454;2023-04-24T17:04:01;10.6;86.8
7455;HTU21D;3769;51.208;4.454;2023-04-24T17:09:01;10.5;87.1
7455;HTU21D;3769;51.208;4.454;2023-04-24T17:14:00;10.5;90.5
7455;HTU21D;3769;51.208;4.454;2023-04-24T17:19:00;10.4;93.1
7455;HTU21D;3769;51.208;4.454;2023-04-24T17:24:00;10.3;93.6
7455;HTU21D;3769;51.208;4.454;2023-04-24T17:29:00;10.5;90.9
7455;HTU21D;3769;51.208;4.454;2023-04-24T17:34:00;10.4;89.1
7455;HTU21D;3769;51.208;4.454;2023-04-24T17:39:00;10.3;89.6
7455;HTU21D;3769;51.208;4.454;2023-04-24T17:44:00;10.1;89.4
7455;HTU21D;3769;51.208;4.454;2023-04-24T17:49:00;10.2;88.9
7455;HTU21D;3769;51.208;4.454;2023-04-24T17:54:01;10.1;89.6
7455;HTU21D;3769;51.208;4.454;2023-04-24T17:59:01;10.2;90.2
7455;HTU21D;3769;51.208;4.454;2023-04-24T18:04:00;10.1;92.7
7455;HTU21D;3769;51.208;4.454;2023-04-24T18:09:01;10.1;90
7455;HTU21D;3769;51.208;4.454;2023-04-24T18:14:00;10;92
7455;HTU21D;3769;51.208;4.454;2023-04-24T18:19:00;9.9;92.5
7455;HTU21D;3769;51.208;4.454;2023-04-24T18:24:00;9.8;90.5
7455;HTU21D;3769;51.208;4.454;2023-04-24T18:29:00;9.8;89.6
7455;HTU21D;3769;51.208;4.454;2023-04-24T18:34:00;9.8;89.2
7455;HTU21D;3769;51.208;4.454;2023-04-24T18:39:00;9.8;90
7455;HTU21D;3769;51.208;4.454;2023-04-24T18:44:01;9.8;90.1
7455;HTU21D;3769;51.208;4.454;2023-04-24T18:49:00;9.7;90.9
7455;HTU21D;3769;51.208;4.454;2023-04-24T18:54:01;9.6;96.4
7455;HTU21D;3769;51.208;4.454;2023-04-24T18:59:00;9.6;94.5
7455;HTU21D;3769;51.208;4.454;2023-04-24T19:04:00;9.6;91.7
7455;HTU21D;3769;51.208;4.454;2023-04-24T19:09:01;9.5;91.9
7455;HTU21D;3769;51.208;4.454;2023-04-24T19:14:00;9.6;92
7455;HTU21D;3769;51.208;4.454;2023-04-24T19:19:00;9.6;92.1
7455;HTU21D;3769;51.208;4.454;2023-04-24T19:24:00;9.5;87
7455;HTU21D;3769;51.208;4.454;2023-04-24T19:29:00;9.4;87.6
7455;HTU21D;3769;51.208;4.454;2023-04-24T19:34:00;9.5;91.8
7455;HTU21D;3769;51.208;4.454;2023-04-24T19:39:00;9.5;93.9
7455;HTU21D;3769;51.208;4.454;2023-04-24T19:44:00;9.4;97.6
7455;HTU21D;3769;51.208;4.454;2023-04-24T19:49:00;9.3;97.6
7455;HTU21D;3769;51.208;4.454;2023-04-24T19:54:00;9.2;97.6
7455;HTU21D;3769;51.208;4.454;2023-04-24T19:59:00;9.3;97.6
7455;HTU21D;3769;51.208;4.454;2023-04-24T20:04:01;9.2;97.6
7455;HTU21D;3769;51.208;4.454;2023-04-24T20:09:01;9.2;97.6
7455;HTU21D;3769;51.208;4.454;2023-04-24T20:14:01;9.2;97.6
7455;HTU21D;3769;51.208;4.454;2023-04-24T20:19:00;9.2;97.6
7455;HTU21D;3769;51.208;4.454;2023-04-24T20:24:00;9.2;97.6
7455;HTU21D;3769;51.208;4.454;2023-04-24T20:29:01;9.3;97.6
7455;HTU21D;3769;51.208;4.454;2023-04-24T20:34:01;9.3;97.6
7455;HTU21D;3769;51.208;4.454;2023-04-24T20:39:00;9.3;97.6
7455;HTU21D;3769;51.208;4.454;2023-04-24T20:44:01;9.4;97.7
7455;HTU21D;3769;51.208;4.454;2023-04-24T20:49:01;9.3;97.6
7455;HTU21D;3769;51.208;4.454;2023-04-24T20:54:01;9.6;97.7
7455;HTU21D;3769;51.208;4.454;2023-04-24T20:59:01;9.5;97.7
7455;HTU21D;3769;51.208;4.454;2023-04-24T21:04:01;9.2;97.6
7455;HTU21D;3769;51.208;4.454;2023-04-24T21:09:01;9.4;97.7
7455;HTU21D;3769;51.208;4.454;2023-04-24T21:14:00;9.5;97.7
7455;HTU21D;3769;51.208;4.454;2023-04-24T21:19:01;9.6;97.7
7455;HTU21D;3769;51.208;4.454;2023-04-24T21:24:00;9.7;97.4
7455;HTU21D;3769;51.208;4.454;2023-04-24T21:29:00;9.6;96.9
7455;HTU21D;3769;51.208;4.454;2023-04-24T21:34:01;9.4;97.7
7455;HTU21D;3769;51.208;4.454;2023-04-24T21:39:01;9.2;97.6
7455;HTU21D;3769;51.208;4.454;2023-04-24T21:44:00;9.1;97.6
7455;HTU21D;3769;51.208;4.454;2023-04-24T21:49:01;9.1;97.6
7455;HTU21D;3769;51.208;4.454;2023-04-24T21:54:00;9.2;97.6
7455;HTU21D;3769;51.208;4.454;2023-04-24T21:59:01;9.1;97.6
7455;HTU21D;3769;51.208;4.454;2023-04-24T22:04:01;9;97.6
7455;HTU21D;3769;51.208;4.454;2023-04-24T22:09:01;9;97.6
7455;HTU21D;3769;51.208;4.454;2023-04-24T22:14:01;9.1;97.6
7455;HTU21D;3769;51.208;4.454;2023-04-24T22:19:01;9;97.6
7455;HTU21D;3769;51.208;4.454;2023-04-24T22:24:00;9;97.6
7455;HTU21D;3769;51.208;4.454;2023-04-24T22:29:00;8.9;97.6
7455;HTU21D;3769;51.208;4.454;2023-04-24T22:34:00;9.1;97.6
7455;HTU21D;3769;51.208;4.454;2023-04-24T22:39:01;9.2;97.6
7455;HTU21D;3769;51.208;4.454;2023-04-24T22:44:01;9;97.6
7455;HTU21D;3769;51.208;4.454;2023-04-24T22:49:00;9.1;97.6
7455;HTU21D;3769;51.208;4.454;2023-04-24T22:54:02;8.9;97.6
7455;HTU21D;3769;51.208;4.454;2023-04-24T22:59:01;8.9;97.6
7455;HTU21D;3769;51.208;4.454;2023-04-24T23:04:01;9.1;97.6
7455;HTU21D;3769;51.208;4.454;2023-04-24T23:09:00;9.1;97.6
7455;HTU21D;3769;51.208;4.454;2023-04-24T23:14:01;9;97.6
7455;HTU21D;3769;51.208;4.454;2023-04-24T23:19:01;9;97.6
7455;HTU21D;3769;51.208;4.454;2023-04-24T23:24:01;8.9;97.6
7455;HTU21D;3769;51.208;4.454;2023-04-24T23:29:01;8.8;97.6
7455;HTU21D;3769;51.208;4.454;2023-04-24T23:34:01;8.7;97.6
7455;HTU21D;3769;51.208;4.454;2023-04-24T23:39:00;8.7;97.6
7455;HTU21D;3769;51.208;4.454;2023-04-24T23:44:00;8.8;97.6
7455;HTU21D;3769;51.208;4.454;2023-04-24T23:49:01;8.8;97.6
7455;HTU21D;3769;51.208;4.454;2023-04-24T23:54:00;8.8;97.6
7455;HTU21D;3769;51.208;4.454;2023-04-24T23:59:00;8.8;97.6
